TimePDT,TemperatureF,Dew PointF,Humidity,Sea Level PressureIn,VisibilityMPH,Wind Direction,Wind SpeedMPH,Gust SpeedMPH,PrecipitationIn,Events,Conditions,WindDirDegrees,DateUTC
12:15 AM,35.6,32.0,87,30.00,10.0,NW,3.5,-,N/A,,Scattered Clouds,310,2013-03-28 07:15:00
12:35 AM,39.2,35.6,87,30.00,10.0,West,3.5,-,N/A,,Scattered Clouds,260,2013-03-28 07:35:00
12:55 AM,37.4,35.6,93,30.01,10.0,Calm,Calm,-,N/A,,Scattered Clouds,0,2013-03-28 07:55:00
1:15 AM,39.2,35.6,87,30.00,10.0,SSW,3.5,-,N/A,,Mostly Cloudy,200,2013-03-28 08:15:00
1:35 AM,33.8,30.2,87,30.01,10.0,Calm,Calm,-,N/A,,Mostly Cloudy,0,2013-03-28 08:35:00
1:55 AM,33.8,30.2,87,30.01,10.0,NNW,3.5,-,N/A,,Mostly Cloudy,330,2013-03-28 08:55:00
2:15 AM,33.8,30.2,87,30.01,10.0,North,4.6,-,N/A,,Mostly Cloudy,10,2013-03-28 09:15:00
2:35 AM,32.0,30.2,93,30.01,10.0,NE,3.5,-,N/A,,Partly Cloudy,40,2013-03-28 09:35:00
2:55 AM,32.0,30.2,93,30.01,10.0,NE,4.6,-,N/A,,Scattered Clouds,50,2013-03-28 09:55:00
3:15 AM,33.8,30.2,87,30.01,10.0,Calm,Calm,-,N/A,,Overcast,0,2013-03-28 10:15:00
3:35 AM,33.8,33.8,100,30.01,10.0,Calm,Calm,-,N/A,,Overcast,0,2013-03-28 10:35:00
3:55 AM,35.6,33.8,93,30.01,10.0,Calm,Calm,-,N/A,,Overcast,0,2013-03-28 10:55:00
4:15 AM,35.6,33.8,93,30.02,10.0,West,3.5,-,N/A,,Overcast,270,2013-03-28 11:15:00
4:35 AM,35.6,33.8,93,30.02,10.0,Calm,Calm,-,N/A,,Overcast,0,2013-03-28 11:35:00
4:55 AM,37.4,35.6,93,30.02,10.0,Calm,Calm,-,N/A,,Mostly Cloudy,0,2013-03-28 11:55:00
5:15 AM,35.6,33.8,93,30.02,10.0,Calm,Calm,-,N/A,,Mostly Cloudy,0,2013-03-28 12:15:00
5:35 AM,37.4,35.6,93,30.02,10.0,East,3.5,-,N/A,,Overcast,90,2013-03-28 12:35:00
5:55 AM,37.4,35.6,93,30.02,10.0,East,6.9,-,N/A,,Mostly Cloudy,100,2013-03-28 12:55:00
6:15 AM,35.6,33.8,93,30.02,10.0,ESE,6.9,-,N/A,,Partly Cloudy,120,2013-03-28 13:15:00
6:35 AM,35.6,35.6,100,30.02,10.0,SE,5.8,-,N/A,,Unknown,140,2013-03-28 13:35:00
6:55 AM,35.6,33.8,93,30.03,10.0,Calm,Calm,-,N/A,,Unknown,0,2013-03-28 13:55:00
7:15 AM,37.4,35.6,93,30.03,10.0,West,3.5,-,N/A,,Unknown,280,2013-03-28 14:15:00
7:35 AM,37.4,35.6,93,30.04,10.0,WNW,3.5,-,N/A,,Overcast,290,2013-03-28 14:35:00
7:55 AM,37.4,35.6,93,30.05,10.0,WNW,4.6,-,N/A,,Overcast,290,2013-03-28 14:55:00
8:15 AM,39.2,37.4,93,30.05,10.0,Calm,Calm,-,N/A,,Overcast,0,2013-03-28 15:15:00
8:35 AM,42.8,37.4,81,30.05,10.0,Calm,Calm,-,N/A,,Overcast,0,2013-03-28 15:35:00
8:55 AM,44.6,35.6,71,30.05,10.0,Calm,Calm,-,N/A,,Mostly Cloudy,0,2013-03-28 15:55:00
9:15 AM,46.4,37.4,71,30.05,10.0,Calm,Calm,-,N/A,,Overcast,0,2013-03-28 16:15:00
9:35 AM,46.4,37.4,71,30.05,10.0,Calm,Calm,-,N/A,,Overcast,0,2013-03-28 16:35:00
9:55 AM,46.4,35.6,66,30.05,10.0,Calm,Calm,-,N/A,,Overcast,0,2013-03-28 16:55:00
10:15 AM,48.2,37.4,66,30.06,10.0,West,3.5,-,N/A,,Overcast,280,2013-03-28 17:15:00
10:35 AM,48.2,35.6,62,30.06,10.0,Calm,Calm,-,N/A,,Overcast,0,2013-03-28 17:35:00
10:55 AM,51.8,35.6,54,30.06,10.0,South,3.5,-,N/A,,Scattered Clouds,190,2013-03-28 17:55:00
11:15 AM,53.6,33.8,47,30.06,10.0,SSE,6.9,-,N/A,,Partly Cloudy,160,2013-03-28 18:15:00
11:35 AM,53.6,35.6,51,30.05,10.0,South,10.4,-,N/A,,Mostly Cloudy,170,2013-03-28 18:35:00
11:55 AM,53.6,33.8,47,30.05,10.0,South,12.7,17.3,N/A,,Partly Cloudy,170,2013-03-28 18:55:00
12:15 PM,53.6,35.6,51,30.05,10.0,South,12.7,-,N/A,,Mostly Cloudy,170,2013-03-28 19:15:00
12:35 PM,53.6,33.8,47,30.05,10.0,South,12.7,16.1,N/A,,Overcast,170,2013-03-28 19:35:00
12:55 PM,51.8,35.6,54,30.04,10.0,South,10.4,-,N/A,,Overcast,180,2013-03-28 19:55:00
1:15 PM,53.6,35.6,51,30.04,10.0,South,10.4,-,N/A,,Overcast,180,2013-03-28 20:15:00
1:35 PM,53.6,35.6,51,30.04,10.0,South,11.5,-,N/A,,Overcast,180,2013-03-28 20:35:00
1:55 PM,51.8,37.4,58,30.05,10.0,South,19.6,24.2,N/A,,Overcast,170,2013-03-28 20:55:00
2:15 PM,50.0,46.4,87,30.04,10.0,SSW,12.7,-,0.01,,Mostly Cloudy,200,2013-03-28 21:15:00
2:35 PM,51.8,39.2,62,30.04,10.0,South,13.8,17.3,0.01,,Mostly Cloudy,180,2013-03-28 21:35:00
2:55 PM,55.4,39.2,54,30.03,10.0,South,13.8,19.6,0.01,,Partly Cloudy,180,2013-03-28 21:55:00
3:15 PM,55.4,39.2,54,30.03,10.0,South,13.8,20.7,N/A,,Mostly Cloudy,170,2013-03-28 22:15:00
3:35 PM,51.8,39.2,62,30.03,10.0,SW,18.4,-,N/A,,Overcast,220,2013-03-28 22:35:00
3:55 PM,55.4,35.6,47,30.03,10.0,SSW,15.0,23.0,N/A,,Mostly Cloudy,210,2013-03-28 22:55:00
4:15 PM,53.6,35.6,51,30.03,10.0,SW,11.5,21.9,N/A,,Scattered Clouds,220,2013-03-28 23:15:00
4:35 PM,57.2,35.6,44,30.03,10.0,SW,13.8,23.0,N/A,,Mostly Cloudy,220,2013-03-28 23:35:00
4:55 PM,57.2,35.6,44,30.03,10.0,SW,15.0,23.0,N/A,,Mostly Cloudy,230,2013-03-28 23:55:00
5:15 PM,57.2,35.6,44,30.03,10.0,SW,17.3,23.0,N/A,,Scattered Clouds,220,2013-03-29 00:15:00
5:35 PM,53.6,35.6,51,30.04,10.0,SSW,15.0,-,N/A,,Scattered Clouds,210,2013-03-29 00:35:00
5:55 PM,51.8,33.8,50,30.04,10.0,SW,15.0,24.2,N/A,,Scattered Clouds,220,2013-03-29 00:55:00
6:15 PM,50.0,33.8,54,30.05,10.0,SSW,13.8,-,N/A,,Clear,210,2013-03-29 01:15:00
6:35 PM,50.0,33.8,54,30.05,10.0,SW,12.7,-,N/A,,Clear,220,2013-03-29 01:35:00
6:55 PM,48.2,33.8,58,30.06,10.0,SW,11.5,-,N/A,,Clear,220,2013-03-29 01:55:00
7:15 PM,48.2,33.8,58,30.07,10.0,SW,11.5,-,N/A,,Clear,220,2013-03-29 02:15:00
7:35 PM,46.4,33.8,62,30.07,10.0,SW,9.2,-,N/A,,Clear,220,2013-03-29 02:35:00
7:55 PM,44.6,33.8,66,30.08,10.0,SSW,12.7,-,N/A,,Clear,210,2013-03-29 02:55:00
8:15 PM,44.6,33.8,66,30.09,10.0,South,10.4,-,N/A,,Clear,190,2013-03-29 03:15:00
8:35 PM,42.8,33.8,70,30.10,10.0,South,8.1,-,N/A,,Partly Cloudy,190,2013-03-29 03:35:00
8:55 PM,42.8,33.8,70,30.11,10.0,South,9.2,-,N/A,,Scattered Clouds,190,2013-03-29 03:55:00
9:15 PM,42.8,32.0,66,30.12,10.0,South,13.8,-,N/A,,Mostly Cloudy,190,2013-03-29 04:15:00
9:35 PM,42.8,32.0,66,30.13,10.0,South,10.4,-,N/A,,Overcast,190,2013-03-29 04:35:00
9:55 PM,39.2,32.0,75,30.13,10.0,South,9.2,-,N/A,,Scattered Clouds,190,2013-03-29 04:55:00
10:15 PM,39.2,33.8,81,30.14,10.0,South,9.2,-,N/A,,Clear,190,2013-03-29 05:15:00
10:35 PM,39.2,33.8,81,30.15,10.0,South,9.2,-,N/A,,Clear,190,2013-03-29 05:35:00
10:55 PM,37.4,33.8,87,30.15,10.0,South,8.1,-,N/A,,Scattered Clouds,190,2013-03-29 05:55:00
11:15 PM,37.4,33.8,87,30.15,10.0,South,6.9,-,N/A,,Overcast,190,2013-03-29 06:15:00
11:35 PM,37.4,33.8,87,30.16,10.0,SSW,8.1,-,N/A,,Overcast,200,2013-03-29 06:35:00
11:55 PM,37.4,33.8,87,30.16,10.0,SSW,4.6,-,N/A,,Mostly Cloudy,200,2013-03-29 06:55:00